CheckWX is a tool to help pilots better visualize weather data.  It is not intended as a substitute for an official pre-flight weather briefing.

12:31:33 UTC

CYKJ TAF
Key Lake Airport
Key Lake, Canada
TAF CYKJ 080943Z 0810/0822 VRB03KT P6SM SKC BECMG 0812/0814 24008KT RMK FCST BASED ON AUTO OBS. NXT FCST BY 081300Z

Dec-8@
10:00 UTC

Dec-8 @ 10:00 UTC

Dec-8@
12:00 UTC

Dec-8 @ 12:00 UTC

TAF CYKJ 080943Z 0810/0822 VRB03KT P6SM SKC

Expired

Wind
  • Variable at 3 KTS
Cloud Levels
  • Clear skies

Dec-8@
12:00 UTC

Dec-8 @ 12:00 UTC

Dec-8@
22:00 UTC

Dec-8 @ 22:00 UTC

BECMG 0812/0814 24008KT RMK FCST BASED ON AUTO OBS. NXT FCST BY 081300Z

Becoming

Becoming Conditions expected by Sun, Dec 8, 2019 @ 14:00 UTC

Wind
  • 240° at 8 KTS
Cloud Levels
  • Clear skies